sensor_id;sensor_type;location;lat;lon;timestamp;temperature;humidity
35363;DHT22;21463;47.480;8.214;2022-11-22T00:00:43;21.00;38.40
35363;DHT22;21463;47.480;8.214;2022-11-22T00:01:45;20.90;38.40
35363;DHT22;21463;47.480;8.214;2022-11-22T00:02:49;21.00;38.50
35363;DHT22;21463;47.480;8.214;2022-11-22T00:03:55;21.00;38.50
35363;DHT22;21463;47.480;8.214;2022-11-22T00:04:58;20.90;38.40
35363;DHT22;21463;47.480;8.214;2022-11-22T00:06:03;21.00;38.50
35363;DHT22;21463;47.480;8.214;2022-11-22T00:07:10;21.00;38.50
35363;DHT22;21463;47.480;8.214;2022-11-22T00:08:16;20.90;38.40
35363;DHT22;21463;47.480;8.214;2022-11-22T00:09:18;21.00;38.50
35363;DHT22;21463;47.480;8.214;2022-11-22T00:10:21;21.00;38.50
35363;DHT22;21463;47.480;8.214;2022-11-22T00:11:23;21.00;38.50
35363;DHT22;21463;47.480;8.214;2022-11-22T00:12:27;21.00;38.50
35363;DHT22;21463;47.480;8.214;2022-11-22T00:13:29;20.90;38.50
35363;DHT22;21463;47.480;8.214;2022-11-22T00:14:33;21.10;38.60
35363;DHT22;21463;47.480;8.214;2022-11-22T00:15:42;21.00;38.50
35363;DHT22;21463;47.480;8.214;2022-11-22T00:16:47;20.90;38.50
35363;DHT22;21463;47.480;8.214;2022-11-22T00:17:53;20.90;38.50
35363;DHT22;21463;47.480;8.214;2022-11-22T00:18:55;21.00;38.50
35363;DHT22;21463;47.480;8.214;2022-11-22T00:19:57;20.90;38.50
35363;DHT22;21463;47.480;8.214;2022-11-22T00:21:09;20.90;38.50
35363;DHT22;21463;47.480;8.214;2022-11-22T00:22:14;20.90;38.50
35363;DHT22;21463;47.480;8.214;2022-11-22T00:23:20;20.90;38.50
35363;DHT22;21463;47.480;8.214;2022-11-22T00:24:23;21.00;38.60
35363;DHT22;21463;47.480;8.214;2022-11-22T00:25:26;21.00;38.60
35363;DHT22;21463;47.480;8.214;2022-11-22T00:26:28;21.00;38.60
35363;DHT22;21463;47.480;8.214;2022-11-22T00:27:31;20.90;38.50
35363;DHT22;21463;47.480;8.214;2022-11-22T00:28:34;21.00;38.60
35363;DHT22;21463;47.480;8.214;2022-11-22T00:29:37;20.90;38.60
35363;DHT22;21463;47.480;8.214;2022-11-22T00:30:39;20.90;38.50
35363;DHT22;21463;47.480;8.214;2022-11-22T00:31:42;21.10;38.70
35363;DHT22;21463;47.480;8.214;2022-11-22T00:32:44;20.90;38.60
35363;DHT22;21463;47.480;8.214;2022-11-22T00:33:49;20.90;38.60
35363;DHT22;21463;47.480;8.214;2022-11-22T00:34:54;21.00;38.60
35363;DHT22;21463;47.480;8.214;2022-11-22T00:35:57;21.00;38.60
35363;DHT22;21463;47.480;8.214;2022-11-22T00:37:02;21.00;38.60
35363;DHT22;21463;47.480;8.214;2022-11-22T00:38:04;21.00;38.70
35363;DHT22;21463;47.480;8.214;2022-11-22T00:39:06;21.00;38.60
35363;DHT22;21463;47.480;8.214;2022-11-22T00:40:09;21.00;38.70
35363;DHT22;21463;47.480;8.214;2022-11-22T00:41:12;21.00;38.60
35363;DHT22;21463;47.480;8.214;2022-11-22T00:42:17;21.00;38.70
35363;DHT22;21463;47.480;8.214;2022-11-22T00:43:21;20.90;38.60
35363;DHT22;21463;47.480;8.214;2022-11-22T00:44:24;21.00;38.70
35363;DHT22;21463;47.480;8.214;2022-11-22T00:45:26;21.00;38.70
35363;DHT22;21463;47.480;8.214;2022-11-22T00:46:29;21.00;38.70
35363;DHT22;21463;47.480;8.214;2022-11-22T00:47:31;21.00;38.70
35363;DHT22;21463;47.480;8.214;2022-11-22T00:48:34;20.90;38.70
35363;DHT22;21463;47.480;8.214;2022-11-22T00:49:36;20.90;38.70
35363;DHT22;21463;47.480;8.214;2022-11-22T00:50:39;21.00;38.70
35363;DHT22;21463;47.480;8.214;2022-11-22T00:51:41;21.00;38.80
35363;DHT22;21463;47.480;8.214;2022-11-22T00:52:44;21.00;38.70
35363;DHT22;21463;47.480;8.214;2022-11-22T00:53:49;21.00;38.70
35363;DHT22;21463;47.480;8.214;2022-11-22T00:54:52;21.00;38.80
35363;DHT22;21463;47.480;8.214;2022-11-22T00:55:56;20.90;38.70
35363;DHT22;21463;47.480;8.214;2022-11-22T00:56:59;21.00;38.80
35363;DHT22;21463;47.480;8.214;2022-11-22T00:58:01;20.90;38.70
35363;DHT22;21463;47.480;8.214;2022-11-22T00:59:04;21.00;38.80
35363;DHT22;21463;47.480;8.214;2022-11-22T01:00:14;21.00;38.80
35363;DHT22;21463;47.480;8.214;2022-11-22T01:01:20;21.00;38.80
35363;DHT22;21463;47.480;8.214;2022-11-22T01:02:22;20.90;38.70
35363;DHT22;21463;47.480;8.214;2022-11-22T01:03:27;21.00;38.80
35363;DHT22;21463;47.480;8.214;2022-11-22T01:04:29;21.00;38.80
35363;DHT22;21463;47.480;8.214;2022-11-22T01:05:34;21.00;38.80
35363;DHT22;21463;47.480;8.214;2022-11-22T01:06:36;20.90;38.80
35363;DHT22;21463;47.480;8.214;2022-11-22T01:07:39;21.00;38.80
35363;DHT22;21463;47.480;8.214;2022-11-22T01:08:42;21.00;38.80
35363;DHT22;21463;47.480;8.214;2022-11-22T01:09:46;20.90;38.80
35363;DHT22;21463;47.480;8.214;2022-11-22T01:10:57;21.00;38.90
35363;DHT22;21463;47.480;8.214;2022-11-22T01:12:00;20.90;38.80
35363;DHT22;21463;47.480;8.214;2022-11-22T01:13:04;21.00;38.90
35363;DHT22;21463;47.480;8.214;2022-11-22T01:14:09;20.90;38.80
35363;DHT22;21463;47.480;8.214;2022-11-22T01:15:11;20.90;38.80
35363;DHT22;21463;47.480;8.214;2022-11-22T01:16:14;20.90;38.80
35363;DHT22;21463;47.480;8.214;2022-11-22T01:17:17;21.00;38.90
35363;DHT22;21463;47.480;8.214;2022-11-22T01:18:19;21.00;38.90
35363;DHT22;21463;47.480;8.214;2022-11-22T01:19:22;20.90;38.90
35363;DHT22;21463;47.480;8.214;2022-11-22T01:20:24;21.00;38.90
35363;DHT22;21463;47.480;8.214;2022-11-22T01:21:27;21.00;38.90
35363;DHT22;21463;47.480;8.214;2022-11-22T01:22:29;20.90;38.90
35363;DHT22;21463;47.480;8.214;2022-11-22T01:23:35;20.90;38.90
35363;DHT22;21463;47.480;8.214;2022-11-22T01:24:38;20.90;39.40
35363;DHT22;21463;47.480;8.214;2022-11-22T01:25:43;21.00;38.90
35363;DHT22;21463;47.480;8.214;2022-11-22T01:26:48;21.10;39.00
35363;DHT22;21463;47.480;8.214;2022-11-22T01:27:51;21.00;39.00
35363;DHT22;21463;47.480;8.214;2022-11-22T01:28:55;20.90;38.90
35363;DHT22;21463;47.480;8.214;2022-11-22T01:29:58;21.00;39.00
35363;DHT22;21463;47.480;8.214;2022-11-22T01:31:01;21.00;39.00
35363;DHT22;21463;47.480;8.214;2022-11-22T01:32:04;20.90;39.00
35363;DHT22;21463;47.480;8.214;2022-11-22T01:33:07;21.00;39.00
35363;DHT22;21463;47.480;8.214;2022-11-22T01:34:10;21.00;39.00
35363;DHT22;21463;47.480;8.214;2022-11-22T01:35:12;20.90;38.90
35363;DHT22;21463;47.480;8.214;2022-11-22T01:36:15;21.00;39.00
35363;DHT22;21463;47.480;8.214;2022-11-22T01:37:20;20.90;38.90
35363;DHT22;21463;47.480;8.214;2022-11-22T01:38:23;20.90;38.90
35363;DHT22;21463;47.480;8.214;2022-11-22T01:39:25;21.00;39.00
35363;DHT22;21463;47.480;8.214;2022-11-22T01:40:29;21.00;39.00
35363;DHT22;21463;47.480;8.214;2022-11-22T01:41:31;20.90;39.00
35363;DHT22;21463;47.480;8.214;2022-11-22T01:42:47;21.00;39.00
35363;DHT22;21463;47.480;8.214;2022-11-22T01:43:50;21.00;39.00
35363;DHT22;21463;47.480;8.214;2022-11-22T01:44:52;21.00;39.00
35363;DHT22;21463;47.480;8.214;2022-11-22T01:45:56;21.00;39.00
35363;DHT22;21463;47.480;8.214;2022-11-22T01:47:04;21.00;39.00
35363;DHT22;21463;47.480;8.214;2022-11-22T01:49:29;20.90;39.00
35363;DHT22;21463;47.480;8.214;2022-11-22T01:50:35;20.90;39.00
35363;DHT22;21463;47.480;8.214;2022-11-22T01:51:41;21.00;39.00
35363;DHT22;21463;47.480;8.214;2022-11-22T01:52:45;21.00;39.00
35363;DHT22;21463;47.480;8.214;2022-11-22T01:53:52;20.90;39.00
35363;DHT22;21463;47.480;8.214;2022-11-22T01:55:03;20.90;39.00
35363;DHT22;21463;47.480;8.214;2022-11-22T01:56:15;21.00;39.00
35363;DHT22;21463;47.480;8.214;2022-11-22T01:57:21;20.90;39.00
35363;DHT22;21463;47.480;8.214;2022-11-22T01:58:29;20.90;39.00
35363;DHT22;21463;47.480;8.214;2022-11-22T01:59:34;20.90;39.00
35363;DHT22;21463;47.480;8.214;2022-11-22T02:00:40;21.00;39.10
35363;DHT22;21463;47.480;8.214;2022-11-22T02:01:43;21.00;39.10
35363;DHT22;21463;47.480;8.214;2022-11-22T02:02:50;21.00;39.10
35363;DHT22;21463;47.480;8.214;2022-11-22T02:03:55;21.00;39.10
35363;DHT22;21463;47.480;8.214;2022-11-22T02:05:03;20.90;39.10
35363;DHT22;21463;47.480;8.214;2022-11-22T02:06:08;20.90;39.10
35363;DHT22;21463;47.480;8.214;2022-11-22T02:07:27;21.00;39.10
35363;DHT22;21463;47.480;8.214;2022-11-22T02:08:48;20.90;39.00
35363;DHT22;21463;47.480;8.214;2022-11-22T02:09:54;21.00;39.10
35363;DHT22;21463;47.480;8.214;2022-11-22T02:10:58;21.00;39.10
35363;DHT22;21463;47.480;8.214;2022-11-22T02:12:04;21.00;39.10
35363;DHT22;21463;47.480;8.214;2022-11-22T02:13:12;20.90;39.10
35363;DHT22;21463;47.480;8.214;2022-11-22T02:14:18;20.90;39.10
35363;DHT22;21463;47.480;8.214;2022-11-22T02:15:22;20.90;39.10
35363;DHT22;21463;47.480;8.214;2022-11-22T02:16:27;21.00;39.10
35363;DHT22;21463;47.480;8.214;2022-11-22T02:17:30;20.90;39.10
35363;DHT22;21463;47.480;8.214;2022-11-22T02:18:34;20.90;39.20
35363;DHT22;21463;47.480;8.214;2022-11-22T02:19:48;21.00;39.10
35363;DHT22;21463;47.480;8.214;2022-11-22T02:20:52;20.90;39.10
35363;DHT22;21463;47.480;8.214;2022-11-22T02:22:04;20.90;39.20
35363;DHT22;21463;47.480;8.214;2022-11-22T02:23:43;21.00;39.20
35363;DHT22;21463;47.480;8.214;2022-11-22T02:24:58;20.90;39.10
35363;DHT22;21463;47.480;8.214;2022-11-22T02:26:01;20.90;39.20
35363;DHT22;21463;47.480;8.214;2022-11-22T02:27:05;21.00;39.20
35363;DHT22;21463;47.480;8.214;2022-11-22T02:28:08;20.90;39.10
35363;DHT22;21463;47.480;8.214;2022-11-22T02:29:14;21.00;39.20
35363;DHT22;21463;47.480;8.214;2022-11-22T02:30:17;21.00;39.20
35363;DHT22;21463;47.480;8.214;2022-11-22T02:31:37;21.00;39.20
35363;DHT22;21463;47.480;8.214;2022-11-22T02:32:40;20.90;39.20
35363;DHT22;21463;47.480;8.214;2022-11-22T02:33:43;20.90;39.20
35363;DHT22;21463;47.480;8.214;2022-11-22T02:34:49;20.90;39.20
35363;DHT22;21463;47.480;8.214;2022-11-22T02:35:52;20.90;39.20
35363;DHT22;21463;47.480;8.214;2022-11-22T02:36:55;21.00;39.30
35363;DHT22;21463;47.480;8.214;2022-11-22T02:38:01;21.00;39.30
35363;DHT22;21463;47.480;8.214;2022-11-22T02:39:08;21.00;39.30
35363;DHT22;21463;47.480;8.214;2022-11-22T02:40:14;20.90;39.20
35363;DHT22;21463;47.480;8.214;2022-11-22T02:41:18;21.00;39.30
35363;DHT22;21463;47.480;8.214;2022-11-22T02:42:21;20.90;39.20
35363;DHT22;21463;47.480;8.214;2022-11-22T02:43:37;21.00;39.30
35363;DHT22;21463;47.480;8.214;2022-11-22T02:44:41;21.00;39.30
35363;DHT22;21463;47.480;8.214;2022-11-22T02:45:43;20.90;39.20
35363;DHT22;21463;47.480;8.214;2022-11-22T02:46:53;20.90;39.20
35363;DHT22;21463;47.480;8.214;2022-11-22T02:48:09;21.00;39.30
35363;DHT22;21463;47.480;8.214;2022-11-22T02:49:11;21.00;39.30
35363;DHT22;21463;47.480;8.214;2022-11-22T02:50:17;21.00;39.30
35363;DHT22;21463;47.480;8.214;2022-11-22T02:51:20;21.00;39.30
35363;DHT22;21463;47.480;8.214;2022-11-22T02:52:22;20.90;39.30
35363;DHT22;21463;47.480;8.214;2022-11-22T02:53:25;20.90;39.30
35363;DHT22;21463;47.480;8.214;2022-11-22T02:54:28;20.90;39.30
35363;DHT22;21463;47.480;8.214;2022-11-22T02:55:33;20.90;39.30
35363;DHT22;21463;47.480;8.214;2022-11-22T02:56:35;21.00;39.30
35363;DHT22;21463;47.480;8.214;2022-11-22T02:57:38;20.90;39.20
35363;DHT22;21463;47.480;8.214;2022-11-22T02:58:41;20.90;39.30
35363;DHT22;21463;47.480;8.214;2022-11-22T02:59:46;20.90;39.80
35363;DHT22;21463;47.480;8.214;2022-11-22T03:00:52;20.90;39.30
35363;DHT22;21463;47.480;8.214;2022-11-22T03:01:57;21.00;39.30
35363;DHT22;21463;47.480;8.214;2022-11-22T03:03:08;20.90;39.30
35363;DHT22;21463;47.480;8.214;2022-11-22T03:04:15;20.90;39.30
35363;DHT22;21463;47.480;8.214;2022-11-22T03:05:26;21.00;39.40
35363;DHT22;21463;47.480;8.214;2022-11-22T03:06:29;20.90;39.30
35363;DHT22;21463;47.480;8.214;2022-11-22T03:07:31;21.00;39.40
35363;DHT22;21463;47.480;8.214;2022-11-22T03:08:37;20.90;39.30
35363;DHT22;21463;47.480;8.214;2022-11-22T03:09:40;20.90;39.30
35363;DHT22;21463;47.480;8.214;2022-11-22T03:10:42;20.90;39.30
35363;DHT22;21463;47.480;8.214;2022-11-22T03:11:45;20.90;39.30
35363;DHT22;21463;47.480;8.214;2022-11-22T03:12:48;20.90;39.30
35363;DHT22;21463;47.480;8.214;2022-11-22T03:13:53;20.90;39.30
35363;DHT22;21463;47.480;8.214;2022-11-22T03:14:55;21.00;39.40
35363;DHT22;21463;47.480;8.214;2022-11-22T03:15:58;21.00;39.40
35363;DHT22;21463;47.480;8.214;2022-11-22T03:17:00;20.90;39.30
35363;DHT22;21463;47.480;8.214;2022-11-22T03:18:04;20.90;39.40
35363;DHT22;21463;47.480;8.214;2022-11-22T03:19:06;21.00;39.40
35363;DHT22;21463;47.480;8.214;2022-11-22T03:20:12;20.90;39.40
35363;DHT22;21463;47.480;8.214;2022-11-22T03:21:18;21.00;39.40
35363;DHT22;21463;47.480;8.214;2022-11-22T03:22:20;20.90;39.40
35363;DHT22;21463;47.480;8.214;2022-11-22T03:23:26;21.00;39.40
35363;DHT22;21463;47.480;8.214;2022-11-22T03:24:30;20.90;39.40
35363;DHT22;21463;47.480;8.214;2022-11-22T03:25:36;20.90;39.30
35363;DHT22;21463;47.480;8.214;2022-11-22T03:26:40;20.90;39.40
35363;DHT22;21463;47.480;8.214;2022-11-22T03:27:47;21.00;39.40
35363;DHT22;21463;47.480;8.214;2022-11-22T03:28:52;20.90;39.40
35363;DHT22;21463;47.480;8.214;2022-11-22T03:29:54;20.90;39.40
35363;DHT22;21463;47.480;8.214;2022-11-22T03:30:57;21.00;39.40
35363;DHT22;21463;47.480;8.214;2022-11-22T03:31:59;20.90;39.40
35363;DHT22;21463;47.480;8.214;2022-11-22T03:33:05;20.90;39.40
35363;DHT22;21463;47.480;8.214;2022-11-22T03:34:09;21.00;39.50
35363;DHT22;21463;47.480;8.214;2022-11-22T03:35:12;20.90;39.40
35363;DHT22;21463;47.480;8.214;2022-11-22T03:36:15;20.90;39.40
35363;DHT22;21463;47.480;8.214;2022-11-22T03:37:21;21.00;39.50
35363;DHT22;21463;47.480;8.214;2022-11-22T03:38:23;20.90;39.40
35363;DHT22;21463;47.480;8.214;2022-11-22T03:39:26;20.90;39.50
35363;DHT22;21463;47.480;8.214;2022-11-22T03:40:29;20.90;39.40
35363;DHT22;21463;47.480;8.214;2022-11-22T03:41:33;20.90;39.40
35363;DHT22;21463;47.480;8.214;2022-11-22T03:42:36;20.90;39.50
35363;DHT22;21463;47.480;8.214;2022-11-22T03:43:38;21.00;39.50
35363;DHT22;21463;47.480;8.214;2022-11-22T03:44:46;21.00;39.60
35363;DHT22;21463;47.480;8.214;2022-11-22T03:45:55;21.00;39.60
35363;DHT22;21463;47.480;8.214;2022-11-22T03:46:57;20.90;39.40
35363;DHT22;21463;47.480;8.214;2022-11-22T03:48:00;20.90;39.50
35363;DHT22;21463;47.480;8.214;2022-11-22T03:49:05;20.90;39.50
35363;DHT22;21463;47.480;8.214;2022-11-22T03:50:08;20.90;39.50
35363;DHT22;21463;47.480;8.214;2022-11-22T03:51:10;20.90;39.50
35363;DHT22;21463;47.480;8.214;2022-11-22T03:52:13;20.90;39.50
35363;DHT22;21463;47.480;8.214;2022-11-22T03:53:18;20.90;39.50
35363;DHT22;21463;47.480;8.214;2022-11-22T03:54:20;20.90;39.50
35363;DHT22;21463;47.480;8.214;2022-11-22T03:55:23;20.90;39.50
35363;DHT22;21463;47.480;8.214;2022-11-22T03:56:27;20.90;39.50
35363;DHT22;21463;47.480;8.214;2022-11-22T03:57:30;20.80;39.40
35363;DHT22;21463;47.480;8.214;2022-11-22T03:58:32;21.00;39.60
35363;DHT22;21463;47.480;8.214;2022-11-22T03:59:38;20.90;39.50
35363;DHT22;21463;47.480;8.214;2022-11-22T04:00:40;20.90;39.50
35363;DHT22;21463;47.480;8.214;2022-11-22T04:01:42;21.00;39.60
35363;DHT22;21463;47.480;8.214;2022-11-22T04:02:45;20.90;39.50
35363;DHT22;21463;47.480;8.214;2022-11-22T04:03:50;20.90;39.50
35363;DHT22;21463;47.480;8.214;2022-11-22T04:04:53;21.00;39.60
35363;DHT22;21463;47.480;8.214;2022-11-22T04:05:56;20.90;39.50
35363;DHT22;21463;47.480;8.214;2022-11-22T04:07:01;20.90;39.50
35363;DHT22;21463;47.480;8.214;2022-11-22T04:08:04;21.00;39.60
35363;DHT22;21463;47.480;8.214;2022-11-22T04:09:09;20.90;39.50
35363;DHT22;21463;47.480;8.214;2022-11-22T04:10:15;20.90;39.50
35363;DHT22;21463;47.480;8.214;2022-11-22T04:11:23;20.90;39.50
35363;DHT22;21463;47.480;8.214;2022-11-22T04:12:29;20.90;39.50
35363;DHT22;21463;47.480;8.214;2022-11-22T04:13:34;20.90;39.50
35363;DHT22;21463;47.480;8.214;2022-11-22T04:14:55;21.00;39.60
35363;DHT22;21463;47.480;8.214;2022-11-22T04:16:10;20.90;39.50
35363;DHT22;21463;47.480;8.214;2022-11-22T04:17:13;20.90;39.60
35363;DHT22;21463;47.480;8.214;2022-11-22T04:18:15;20.90;39.50
35363;DHT22;21463;47.480;8.214;2022-11-22T04:19:18;20.90;39.60
35363;DHT22;21463;47.480;8.214;2022-11-22T04:20:23;21.00;39.60
35363;DHT22;21463;47.480;8.214;2022-11-22T04:21:47;20.90;39.60
35363;DHT22;21463;47.480;8.214;2022-11-22T04:23:05;20.90;39.60
35363;DHT22;21463;47.480;8.214;2022-11-22T04:24:09;21.00;39.60
35363;DHT22;21463;47.480;8.214;2022-11-22T04:25:32;20.90;39.60
35363;DHT22;21463;47.480;8.214;2022-11-22T04:26:36;20.90;39.60
35363;DHT22;21463;47.480;8.214;2022-11-22T04:27:54;21.00;39.60
35363;DHT22;21463;47.480;8.214;2022-11-22T04:28:56;21.00;39.60
35363;DHT22;21463;47.480;8.214;2022-11-22T04:30:12;21.00;39.70
35363;DHT22;21463;47.480;8.214;2022-11-22T04:31:22;20.90;39.60
35363;DHT22;21463;47.480;8.214;2022-11-22T04:32:43;20.90;39.60
35363;DHT22;21463;47.480;8.214;2022-11-22T04:33:49;21.00;39.70
35363;DHT22;21463;47.480;8.214;2022-11-22T04:34:52;20.90;39.60
35363;DHT22;21463;47.480;8.214;2022-11-22T04:35:54;20.90;39.60
35363;DHT22;21463;47.480;8.214;2022-11-22T04:36:57;21.00;39.70
35363;DHT22;21463;47.480;8.214;2022-11-22T04:38:04;20.90;39.60
35363;DHT22;21463;47.480;8.214;2022-11-22T04:39:06;20.90;39.60
35363;DHT22;21463;47.480;8.214;2022-11-22T04:40:09;20.90;39.60
35363;DHT22;21463;47.480;8.214;2022-11-22T04:41:12;20.90;39.60
35363;DHT22;21463;47.480;8.214;2022-11-22T04:42:14;20.90;39.60
35363;DHT22;21463;47.480;8.214;2022-11-22T04:43:35;21.00;39.70
35363;DHT22;21463;47.480;8.214;2022-11-22T04:44:59;20.90;39.60
35363;DHT22;21463;47.480;8.214;2022-11-22T04:46:01;20.90;39.60
35363;DHT22;21463;47.480;8.214;2022-11-22T04:47:04;21.00;39.70
35363;DHT22;21463;47.480;8.214;2022-11-22T04:48:06;20.90;39.70
35363;DHT22;21463;47.480;8.214;2022-11-22T04:49:13;20.90;39.60
35363;DHT22;21463;47.480;8.214;2022-11-22T04:50:15;20.90;39.60
35363;DHT22;21463;47.480;8.214;2022-11-22T04:51:36;20.90;39.60
35363;DHT22;21463;47.480;8.214;2022-11-22T04:52:58;20.90;39.60
35363;DHT22;21463;47.480;8.214;2022-11-22T04:54:00;20.90;39.60
35363;DHT22;21463;47.480;8.214;2022-11-22T04:55:03;20.90;39.70
35363;DHT22;21463;47.480;8.214;2022-11-22T04:56:09;20.90;39.70
35363;DHT22;21463;47.480;8.214;2022-11-22T04:57:11;20.90;39.60
35363;DHT22;21463;47.480;8.214;2022-11-22T04:58:17;20.90;39.70
35363;DHT22;21463;47.480;8.214;2022-11-22T04:59:19;21.00;39.70
35363;DHT22;21463;47.480;8.214;2022-11-22T05:00:25;20.90;40.30
35363;DHT22;21463;47.480;8.214;2022-11-22T05:01:28;20.90;39.70
35363;DHT22;21463;47.480;8.214;2022-11-22T05:02:33;20.90;39.70
35363;DHT22;21463;47.480;8.214;2022-11-22T05:03:46;20.90;39.70
35363;DHT22;21463;47.480;8.214;2022-11-22T05:04:48;20.90;39.70
35363;DHT22;21463;47.480;8.214;2022-11-22T05:05:54;20.90;39.70
35363;DHT22;21463;47.480;8.214;2022-11-22T05:06:57;21.00;39.80
35363;DHT22;21463;47.480;8.214;2022-11-22T05:07:59;20.90;39.70
35363;DHT22;21463;47.480;8.214;2022-11-22T05:09:03;21.00;40.30
35363;DHT22;21463;47.480;8.214;2022-11-22T05:10:05;20.90;39.70
35363;DHT22;21463;47.480;8.214;2022-11-22T05:11:08;20.90;39.70
35363;DHT22;21463;47.480;8.214;2022-11-22T05:12:11;20.90;39.70
35363;DHT22;21463;47.480;8.214;2022-11-22T05:13:13;20.90;39.70
35363;DHT22;21463;47.480;8.214;2022-11-22T05:14:16;20.90;39.70
35363;DHT22;21463;47.480;8.214;2022-11-22T05:15:18;20.90;39.70
35363;DHT22;21463;47.480;8.214;2022-11-22T05:16:21;20.90;39.70
35363;DHT22;21463;47.480;8.214;2022-11-22T05:17:26;20.90;39.70
35363;DHT22;21463;47.480;8.214;2022-11-22T05:18:29;21.00;39.80
35363;DHT22;21463;47.480;8.214;2022-11-22T05:19:33;21.00;39.80
35363;DHT22;21463;47.480;8.214;2022-11-22T05:20:36;20.90;40.30
35363;DHT22;21463;47.480;8.214;2022-11-22T05:21:38;20.90;39.70
35363;DHT22;21463;47.480;8.214;2022-11-22T05:22:41;20.90;39.70
35363;DHT22;21463;47.480;8.214;2022-11-22T05:24:02;21.00;39.80
35363;DHT22;21463;47.480;8.214;2022-11-22T05:25:05;20.90;39.70
35363;DHT22;21463;47.480;8.214;2022-11-22T05:26:08;20.90;39.80
35363;DHT22;21463;47.480;8.214;2022-11-22T05:27:13;20.90;39.80
35363;DHT22;21463;47.480;8.214;2022-11-22T05:28:16;20.90;39.70
35363;DHT22;21463;47.480;8.214;2022-11-22T05:29:18;20.90;39.70
35363;DHT22;21463;47.480;8.214;2022-11-22T05:30:21;20.90;39.70
35363;DHT22;21463;47.480;8.214;2022-11-22T05:31:25;21.00;39.80
35363;DHT22;21463;47.480;8.214;2022-11-22T05:32:30;20.90;39.80
35363;DHT22;21463;47.480;8.214;2022-11-22T05:33:38;20.90;39.70
35363;DHT22;21463;47.480;8.214;2022-11-22T05:34:42;21.00;39.80
35363;DHT22;21463;47.480;8.214;2022-11-22T05:35:45;20.90;39.80
35363;DHT22;21463;47.480;8.214;2022-11-22T05:36:47;20.90;39.80
35363;DHT22;21463;47.480;8.214;2022-11-22T05:37:58;20.90;39.80
35363;DHT22;21463;47.480;8.214;2022-11-22T05:39:03;20.90;39.80
35363;DHT22;21463;47.480;8.214;2022-11-22T05:40:11;20.90;39.80
35363;DHT22;21463;47.480;8.214;2022-11-22T05:41:16;20.90;39.80
35363;DHT22;21463;47.480;8.214;2022-11-22T05:42:18;21.00;39.90
35363;DHT22;21463;47.480;8.214;2022-11-22T05:43:21;20.90;39.80
35363;DHT22;21463;47.480;8.214;2022-11-22T05:44:23;20.90;39.80
35363;DHT22;21463;47.480;8.214;2022-11-22T05:45:26;20.90;39.80
35363;DHT22;21463;47.480;8.214;2022-11-22T05:46:29;20.90;39.80
35363;DHT22;21463;47.480;8.214;2022-11-22T05:47:34;21.00;39.90
35363;DHT22;21463;47.480;8.214;2022-11-22T05:48:41;20.90;39.80
35363;DHT22;21463;47.480;8.214;2022-11-22T05:49:44;20.90;39.80
35363;DHT22;21463;47.480;8.214;2022-11-22T05:50:50;21.00;39.90
35363;DHT22;21463;47.480;8.214;2022-11-22T05:51:52;20.90;39.80
35363;DHT22;21463;47.480;8.214;2022-11-22T05:52:59;20.90;39.90
35363;DHT22;21463;47.480;8.214;2022-11-22T05:54:05;20.90;39.90
35363;DHT22;21463;47.480;8.214;2022-11-22T05:55:07;20.90;39.90
35363;DHT22;21463;47.480;8.214;2022-11-22T05:56:17;20.90;39.90
35363;DHT22;21463;47.480;8.214;2022-11-22T05:57:23;20.90;39.90
35363;DHT22;21463;47.480;8.214;2022-11-22T05:58:26;20.90;39.90
35363;DHT22;21463;47.480;8.214;2022-11-22T05:59:28;20.90;40.50
35363;DHT22;21463;47.480;8.214;2022-11-22T06:00:31;20.90;40.00
35363;DHT22;21463;47.480;8.214;2022-11-22T06:01:33;20.90;40.10
35363;DHT22;21463;47.480;8.214;2022-11-22T06:02:39;20.90;40.00
35363;DHT22;21463;47.480;8.214;2022-11-22T06:03:42;20.90;40.00
35363;DHT22;21463;47.480;8.214;2022-11-22T06:04:45;20.90;40.00
35363;DHT22;21463;47.480;8.214;2022-11-22T06:05:51;20.90;40.00
35363;DHT22;21463;47.480;8.214;2022-11-22T06:06:53;21.00;40.00
35363;DHT22;21463;47.480;8.214;2022-11-22T06:07:59;21.00;40.00
35363;DHT22;21463;47.480;8.214;2022-11-22T06:09:06;20.90;40.00
35363;DHT22;21463;47.480;8.214;2022-11-22T06:10:15;21.00;40.10
35363;DHT22;21463;47.480;8.214;2022-11-22T06:11:22;20.90;40.00
35363;DHT22;21463;47.480;8.214;2022-11-22T06:12:26;20.90;40.00
35363;DHT22;21463;47.480;8.214;2022-11-22T06:13:38;20.90;40.10
35363;DHT22;21463;47.480;8.214;2022-11-22T06:14:44;21.00;40.10
35363;DHT22;21463;47.480;8.214;2022-11-22T06:15:49;21.00;40.10
35363;DHT22;21463;47.480;8.214;2022-11-22T06:16:52;20.90;40.10
35363;DHT22;21463;47.480;8.214;2022-11-22T06:17:54;20.90;40.10
35363;DHT22;21463;47.480;8.214;2022-11-22T06:18:57;20.90;40.10
35363;DHT22;21463;47.480;8.214;2022-11-22T06:19:59;20.90;40.10
35363;DHT22;21463;47.480;8.214;2022-11-22T06:21:11;21.00;40.20
35363;DHT22;21463;47.480;8.214;2022-11-22T06:22:14;20.90;40.10
35363;DHT22;21463;47.480;8.214;2022-11-22T06:23:16;21.00;40.20
35363;DHT22;21463;47.480;8.214;2022-11-22T06:24:19;20.90;40.20
35363;DHT22;21463;47.480;8.214;2022-11-22T06:25:21;21.00;40.20
35363;DHT22;21463;47.480;8.214;2022-11-22T06:26:24;20.90;40.10
35363;DHT22;21463;47.480;8.214;2022-11-22T06:27:31;20.90;40.20
35363;DHT22;21463;47.480;8.214;2022-11-22T06:28:35;21.00;40.20
35363;DHT22;21463;47.480;8.214;2022-11-22T06:29:39;21.00;40.20
35363;DHT22;21463;47.480;8.214;2022-11-22T06:30:44;20.90;40.20
35363;DHT22;21463;47.480;8.214;2022-11-22T06:31:46;20.90;40.20
35363;DHT22;21463;47.480;8.214;2022-11-22T06:32:49;20.90;40.20
35363;DHT22;21463;47.480;8.214;2022-11-22T06:33:53;21.00;40.30
35363;DHT22;21463;47.480;8.214;2022-11-22T06:34:59;20.90;40.20
35363;DHT22;21463;47.480;8.214;2022-11-22T06:36:10;21.00;40.30
35363;DHT22;21463;47.480;8.214;2022-11-22T06:37:15;20.90;40.30
35363;DHT22;21463;47.480;8.214;2022-11-22T06:38:18;21.00;40.30
35363;DHT22;21463;47.480;8.214;2022-11-22T06:39:24;21.00;40.30
35363;DHT22;21463;47.480;8.214;2022-11-22T06:40:30;20.90;40.30
35363;DHT22;21463;47.480;8.214;2022-11-22T06:41:35;21.00;40.40
35363;DHT22;21463;47.480;8.214;2022-11-22T06:42:38;21.00;40.40
35363;DHT22;21463;47.480;8.214;2022-11-22T06:43:44;20.90;40.40
35363;DHT22;21463;47.480;8.214;2022-11-22T06:44:51;20.90;40.30
35363;DHT22;21463;47.480;8.214;2022-11-22T06:45:56;20.90;40.40
35363;DHT22;21463;47.480;8.214;2022-11-22T06:46:59;20.90;41.00
35363;DHT22;21463;47.480;8.214;2022-11-22T06:48:02;21.00;40.50
35363;DHT22;21463;47.480;8.214;2022-11-22T06:49:05;20.90;40.50
35363;DHT22;21463;47.480;8.214;2022-11-22T06:50:11;20.90;40.40
35363;DHT22;21463;47.480;8.214;2022-11-22T06:51:22;21.00;40.50
35363;DHT22;21463;47.480;8.214;2022-11-22T06:52:27;20.90;40.50